sensor_id;sensor_type;location;lat;lon;timestamp;P1;durP1;ratioP1;P2;durP2;ratioP2
16288;SDS011;26089;43.538;5.250;2023-02-13T00:00:42;69.90;;;40.20;;
16288;SDS011;26089;43.538;5.250;2023-02-13T00:03:09;62.07;;;37.70;;
16288;SDS011;26089;43.538;5.250;2023-02-13T00:05:36;57.13;;;34.80;;
16288;SDS011;26089;43.538;5.250;2023-02-13T00:08:03;55.23;;;35.57;;
16288;SDS011;26089;43.538;5.250;2023-02-13T00:10:32;52.83;;;32.27;;
16288;SDS011;26089;43.538;5.250;2023-02-13T00:12:59;53.27;;;32.73;;
16288;SDS011;26089;43.538;5.250;2023-02-13T00:15:26;51.30;;;33.43;;
16288;SDS011;26089;43.538;5.250;2023-02-13T00:17:53;52.70;;;32.03;;
16288;SDS011;26089;43.538;5.250;2023-02-13T00:20:20;48.67;;;31.17;;
16288;SDS011;26089;43.538;5.250;2023-02-13T00:22:47;45.17;;;28.23;;
16288;SDS011;26089;43.538;5.250;2023-02-13T00:25:14;48.53;;;29.17;;
16288;SDS011;26089;43.538;5.250;2023-02-13T00:27:43;41.40;;;25.83;;
16288;SDS011;26089;43.538;5.250;2023-02-13T00:30:10;40.83;;;26.20;;
16288;SDS011;26089;43.538;5.250;2023-02-13T00:32:38;39.97;;;25.53;;
16288;SDS011;26089;43.538;5.250;2023-02-13T00:35:05;43.97;;;25.43;;
16288;SDS011;26089;43.538;5.250;2023-02-13T00:37:32;41.67;;;27.07;;
16288;SDS011;26089;43.538;5.250;2023-02-13T00:39:59;43.47;;;27.27;;
16288;SDS011;26089;43.538;5.250;2023-02-13T00:42:26;41.13;;;26.17;;
16288;SDS011;26089;43.538;5.250;2023-02-13T00:44:55;38.80;;;25.87;;
16288;SDS011;26089;43.538;5.250;2023-02-13T00:47:22;44.47;;;26.63;;
16288;SDS011;26089;43.538;5.250;2023-02-13T00:49:49;43.33;;;27.07;;
16288;SDS011;26089;43.538;5.250;2023-02-13T00:52:16;46.03;;;29.43;;
16288;SDS011;26089;43.538;5.250;2023-02-13T00:54:43;47.93;;;29.53;;
16288;SDS011;26089;43.538;5.250;2023-02-13T00:57:11;43.27;;;30.07;;
16288;SDS011;26089;43.538;5.250;2023-02-13T00:59:38;52.47;;;31.50;;
16288;SDS011;26089;43.538;5.250;2023-02-13T01:02:06;53.30;;;30.70;;
16288;SDS011;26089;43.538;5.250;2023-02-13T01:04:33;45.60;;;27.80;;
16288;SDS011;26089;43.538;5.250;2023-02-13T01:07:00;43.80;;;26.97;;
16288;SDS011;26089;43.538;5.250;2023-02-13T01:09:27;41.93;;;27.03;;
16288;SDS011;26089;43.538;5.250;2023-02-13T01:11:54;40.53;;;25.93;;
16288;SDS011;26089;43.538;5.250;2023-02-13T01:14:21;42.70;;;27.33;;
16288;SDS011;26089;43.538;5.250;2023-02-13T01:16:48;41.80;;;26.17;;
16288;SDS011;26089;43.538;5.250;2023-02-13T01:19:17;44.10;;;27.23;;
16288;SDS011;26089;43.538;5.250;2023-02-13T01:21:44;41.83;;;28.73;;
16288;SDS011;26089;43.538;5.250;2023-02-13T01:24:10;43.93;;;27.63;;
16288;SDS011;26089;43.538;5.250;2023-02-13T01:26:37;47.70;;;28.13;;
16288;SDS011;26089;43.538;5.250;2023-02-13T01:29:04;46.67;;;29.97;;
16288;SDS011;26089;43.538;5.250;2023-02-13T01:31:32;46.13;;;28.27;;
16288;SDS011;26089;43.538;5.250;2023-02-13T01:33:59;46.77;;;28.87;;
16288;SDS011;26089;43.538;5.250;2023-02-13T01:36:27;51.53;;;29.60;;
16288;SDS011;26089;43.538;5.250;2023-02-13T01:38:55;48.20;;;28.30;;
16288;SDS011;26089;43.538;5.250;2023-02-13T01:41:23;47.37;;;28.20;;
16288;SDS011;26089;43.538;5.250;2023-02-13T01:43:53;46.13;;;28.20;;
16288;SDS011;26089;43.538;5.250;2023-02-13T01:46:23;50.07;;;28.77;;
16288;SDS011;26089;43.538;5.250;2023-02-13T01:48:53;45.03;;;26.87;;
16288;SDS011;26089;43.538;5.250;2023-02-13T01:51:24;42.57;;;26.87;;
16288;SDS011;26089;43.538;5.250;2023-02-13T01:53:57;43.40;;;27.63;;
16288;SDS011;26089;43.538;5.250;2023-02-13T01:56:28;48.03;;;29.33;;
16288;SDS011;26089;43.538;5.250;2023-02-13T01:58:59;41.70;;;26.80;;
16288;SDS011;26089;43.538;5.250;2023-02-13T02:01:29;45.60;;;27.83;;
16288;SDS011;26089;43.538;5.250;2023-02-13T02:03:58;41.77;;;26.60;;
16288;SDS011;26089;43.538;5.250;2023-02-13T02:06:34;41.47;;;27.27;;
16288;SDS011;26089;43.538;5.250;2023-02-13T02:09:05;44.00;;;28.17;;
16288;SDS011;26089;43.538;5.250;2023-02-13T02:11:38;42.07;;;27.90;;
16288;SDS011;26089;43.538;5.250;2023-02-13T02:14:09;44.03;;;28.37;;
16288;SDS011;26089;43.538;5.250;2023-02-13T02:16:36;41.17;;;27.23;;
16288;SDS011;26089;43.538;5.250;2023-02-13T02:19:03;42.97;;;27.77;;
16288;SDS011;26089;43.538;5.250;2023-02-13T02:21:41;46.60;;;28.40;;
16288;SDS011;26089;43.538;5.250;2023-02-13T02:24:45;40.77;;;28.10;;
16288;SDS011;26089;43.538;5.250;2023-02-13T02:27:31;41.50;;;26.83;;
16288;SDS011;26089;43.538;5.250;2023-02-13T02:30:11;44.10;;;28.70;;
16288;SDS011;26089;43.538;5.250;2023-02-13T02:32:57;46.50;;;28.03;;
16288;SDS011;26089;43.538;5.250;2023-02-13T02:35:35;43.17;;;28.27;;
16288;SDS011;26089;43.538;5.250;2023-02-13T02:38:17;44.60;;;26.20;;
16288;SDS011;26089;43.538;5.250;2023-02-13T02:40:57;42.73;;;27.10;;
16288;SDS011;26089;43.538;5.250;2023-02-13T02:43:35;42.33;;;26.73;;
16288;SDS011;26089;43.538;5.250;2023-02-13T02:46:15;36.83;;;24.67;;
16288;SDS011;26089;43.538;5.250;2023-02-13T02:48:53;39.53;;;24.67;;
16288;SDS011;26089;43.538;5.250;2023-02-13T02:51:46;39.63;;;24.60;;
16288;SDS011;26089;43.538;5.250;2023-02-13T02:54:21;39.03;;;25.53;;
16288;SDS011;26089;43.538;5.250;2023-02-13T02:57:09;35.90;;;24.53;;
16288;SDS011;26089;43.538;5.250;2023-02-13T02:59:39;37.93;;;25.63;;
16288;SDS011;26089;43.538;5.250;2023-02-13T03:02:26;41.80;;;26.90;;
16288;SDS011;26089;43.538;5.250;2023-02-13T03:05:16;44.90;;;27.27;;
16288;SDS011;26089;43.538;5.250;2023-02-13T03:08:03;42.53;;;27.83;;
16288;SDS011;26089;43.538;5.250;2023-02-13T03:10:31;49.57;;;29.10;;
16288;SDS011;26089;43.538;5.250;2023-02-13T03:13:27;44.50;;;28.90;;
16288;SDS011;26089;43.538;5.250;2023-02-13T03:16:01;50.50;;;29.70;;
16288;SDS011;26089;43.538;5.250;2023-02-13T03:18:51;49.00;;;30.20;;
16288;SDS011;26089;43.538;5.250;2023-02-13T03:21:43;43.53;;;28.97;;
16288;SDS011;26089;43.538;5.250;2023-02-13T03:24:35;50.33;;;29.17;;
16288;SDS011;26089;43.538;5.250;2023-02-13T03:27:13;45.43;;;28.70;;
16288;SDS011;26089;43.538;5.250;2023-02-13T03:30:09;41.73;;;26.97;;
16288;SDS011;26089;43.538;5.250;2023-02-13T03:32:44;41.73;;;26.40;;
16288;SDS011;26089;43.538;5.250;2023-02-13T03:35:21;43.80;;;25.67;;
16288;SDS011;26089;43.538;5.250;2023-02-13T03:38:17;40.93;;;26.37;;
16288;SDS011;26089;43.538;5.250;2023-02-13T03:40:49;43.73;;;24.77;;
16288;SDS011;26089;43.538;5.250;2023-02-13T03:43:40;40.43;;;25.77;;
16288;SDS011;26089;43.538;5.250;2023-02-13T03:46:15;41.47;;;26.07;;
16288;SDS011;26089;43.538;5.250;2023-02-13T03:48:45;37.13;;;24.70;;
16288;SDS011;26089;43.538;5.250;2023-02-13T03:51:31;41.53;;;25.27;;
16288;SDS011;26089;43.538;5.250;2023-02-13T03:54:04;46.63;;;26.67;;
16288;SDS011;26089;43.538;5.250;2023-02-13T03:56:38;40.00;;;25.90;;
16288;SDS011;26089;43.538;5.250;2023-02-13T03:59:26;41.27;;;24.50;;
16288;SDS011;26089;43.538;5.250;2023-02-13T04:01:58;38.87;;;26.60;;
16288;SDS011;26089;43.538;5.250;2023-02-13T04:04:31;43.40;;;26.63;;
16288;SDS011;26089;43.538;5.250;2023-02-13T04:07:05;42.67;;;25.07;;
16288;SDS011;26089;43.538;5.250;2023-02-13T04:09:37;43.17;;;25.43;;
16288;SDS011;26089;43.538;5.250;2023-02-13T04:12:08;41.90;;;25.93;;
16288;SDS011;26089;43.538;5.250;2023-02-13T04:14:44;42.30;;;26.43;;
16288;SDS011;26089;43.538;5.250;2023-02-13T04:17:16;40.63;;;25.47;;
16288;SDS011;26089;43.538;5.250;2023-02-13T04:19:47;47.00;;;25.70;;
16288;SDS011;26089;43.538;5.250;2023-02-13T04:22:14;37.20;;;24.40;;
16288;SDS011;26089;43.538;5.250;2023-02-13T04:24:42;44.73;;;26.47;;
16288;SDS011;26089;43.538;5.250;2023-02-13T04:27:10;39.37;;;25.97;;
16288;SDS011;26089;43.538;5.250;2023-02-13T04:29:39;41.30;;;26.70;;
16288;SDS011;26089;43.538;5.250;2023-02-13T04:32:07;46.27;;;27.03;;
16288;SDS011;26089;43.538;5.250;2023-02-13T04:34:35;42.03;;;25.80;;
16288;SDS011;26089;43.538;5.250;2023-02-13T04:37:02;44.90;;;27.53;;
16288;SDS011;26089;43.538;5.250;2023-02-13T04:39:30;44.17;;;28.00;;
16288;SDS011;26089;43.538;5.250;2023-02-13T04:41:59;43.67;;;27.23;;
16288;SDS011;26089;43.538;5.250;2023-02-13T04:44:26;39.70;;;26.87;;
16288;SDS011;26089;43.538;5.250;2023-02-13T04:46:53;40.10;;;25.23;;
16288;SDS011;26089;43.538;5.250;2023-02-13T04:49:20;37.37;;;24.77;;
16288;SDS011;26089;43.538;5.250;2023-02-13T04:51:47;42.07;;;26.40;;
16288;SDS011;26089;43.538;5.250;2023-02-13T04:54:14;42.73;;;25.50;;
16288;SDS011;26089;43.538;5.250;2023-02-13T04:56:41;40.03;;;26.13;;
16288;SDS011;26089;43.538;5.250;2023-02-13T04:59:09;40.53;;;25.23;;
16288;SDS011;26089;43.538;5.250;2023-02-13T05:01:36;39.50;;;26.03;;
16288;SDS011;26089;43.538;5.250;2023-02-13T05:04:03;44.40;;;27.13;;
16288;SDS011;26089;43.538;5.250;2023-02-13T05:06:30;39.73;;;25.60;;
16288;SDS011;26089;43.538;5.250;2023-02-13T05:08:57;44.23;;;27.57;;
16288;SDS011;26089;43.538;5.250;2023-02-13T05:11:24;40.60;;;25.67;;
16288;SDS011;26089;43.538;5.250;2023-02-13T05:13:51;40.33;;;27.43;;
16288;SDS011;26089;43.538;5.250;2023-02-13T05:16:19;43.33;;;28.40;;
16288;SDS011;26089;43.538;5.250;2023-02-13T05:18:46;43.83;;;27.40;;
16288;SDS011;26089;43.538;5.250;2023-02-13T05:21:13;41.23;;;27.03;;
16288;SDS011;26089;43.538;5.250;2023-02-13T05:23:58;40.90;;;27.07;;
16288;SDS011;26089;43.538;5.250;2023-02-13T05:26:25;45.27;;;27.63;;
16288;SDS011;26089;43.538;5.250;2023-02-13T05:28:52;40.37;;;27.10;;
16288;SDS011;26089;43.538;5.250;2023-02-13T05:31:38;35.97;;;25.93;;
16288;SDS011;26089;43.538;5.250;2023-02-13T05:34:04;46.07;;;26.20;;
16288;SDS011;26089;43.538;5.250;2023-02-13T05:36:32;40.70;;;26.50;;
16288;SDS011;26089;43.538;5.250;2023-02-13T05:38:59;41.63;;;26.03;;
16288;SDS011;26089;43.538;5.250;2023-02-13T05:41:26;42.60;;;25.70;;
16288;SDS011;26089;43.538;5.250;2023-02-13T05:43:53;40.10;;;24.80;;
16288;SDS011;26089;43.538;5.250;2023-02-13T05:46:19;42.77;;;26.10;;
16288;SDS011;26089;43.538;5.250;2023-02-13T05:48:48;39.63;;;25.17;;
16288;SDS011;26089;43.538;5.250;2023-02-13T05:51:15;41.67;;;24.43;;
16288;SDS011;26089;43.538;5.250;2023-02-13T05:53:42;35.50;;;23.03;;
16288;SDS011;26089;43.538;5.250;2023-02-13T05:56:09;40.60;;;24.80;;
16288;SDS011;26089;43.538;5.250;2023-02-13T05:58:36;37.37;;;25.00;;
16288;SDS011;26089;43.538;5.250;2023-02-13T06:01:03;35.60;;;22.97;;
16288;SDS011;26089;43.538;5.250;2023-02-13T06:03:31;40.90;;;25.30;;
16288;SDS011;26089;43.538;5.250;2023-02-13T06:05:59;36.90;;;22.50;;
16288;SDS011;26089;43.538;5.250;2023-02-13T06:08:27;35.33;;;23.13;;
16288;SDS011;26089;43.538;5.250;2023-02-13T06:10:54;37.93;;;23.87;;
16288;SDS011;26089;43.538;5.250;2023-02-13T06:13:21;35.40;;;23.30;;
16288;SDS011;26089;43.538;5.250;2023-02-13T06:15:48;33.90;;;22.47;;
16288;SDS011;26089;43.538;5.250;2023-02-13T06:18:15;35.83;;;22.20;;
16288;SDS011;26089;43.538;5.250;2023-02-13T06:20:42;36.20;;;22.93;;
16288;SDS011;26089;43.538;5.250;2023-02-13T06:23:11;35.97;;;23.03;;
16288;SDS011;26089;43.538;5.250;2023-02-13T06:25:38;35.87;;;23.63;;
16288;SDS011;26089;43.538;5.250;2023-02-13T06:28:05;41.13;;;25.73;;
16288;SDS011;26089;43.538;5.250;2023-02-13T06:30:32;36.50;;;23.33;;
16288;SDS011;26089;43.538;5.250;2023-02-13T06:33:00;36.03;;;23.60;;
16288;SDS011;26089;43.538;5.250;2023-02-13T06:35:27;36.73;;;22.67;;
16288;SDS011;26089;43.538;5.250;2023-02-13T06:37:54;34.60;;;22.90;;
16288;SDS011;26089;43.538;5.250;2023-02-13T06:40:22;37.17;;;24.07;;
16288;SDS011;26089;43.538;5.250;2023-02-13T06:42:49;36.00;;;23.37;;
16288;SDS011;26089;43.538;5.250;2023-02-13T06:45:16;34.97;;;21.93;;
16288;SDS011;26089;43.538;5.250;2023-02-13T06:47:44;38.27;;;23.20;;
16288;SDS011;26089;43.538;5.250;2023-02-13T06:50:13;35.07;;;22.10;;
16288;SDS011;26089;43.538;5.250;2023-02-13T06:52:44;37.83;;;23.67;;
16288;SDS011;26089;43.538;5.250;2023-02-13T06:55:12;35.67;;;21.50;;
16288;SDS011;26089;43.538;5.250;2023-02-13T06:57:41;34.57;;;21.90;;
16288;SDS011;26089;43.538;5.250;2023-02-13T07:00:08;38.80;;;21.77;;
16288;SDS011;26089;43.538;5.250;2023-02-13T07:02:37;39.83;;;22.53;;
16288;SDS011;26089;43.538;5.250;2023-02-13T07:05:04;38.63;;;23.70;;
16288;SDS011;26089;43.538;5.250;2023-02-13T07:07:32;34.97;;;23.83;;
16288;SDS011;26089;43.538;5.250;2023-02-13T07:09:59;36.93;;;23.03;;
16288;SDS011;26089;43.538;5.250;2023-02-13T07:12:26;30.83;;;21.33;;
16288;SDS011;26089;43.538;5.250;2023-02-13T07:14:55;41.17;;;22.20;;
16288;SDS011;26089;43.538;5.250;2023-02-13T07:17:22;39.33;;;22.53;;
16288;SDS011;26089;43.538;5.250;2023-02-13T07:19:50;35.70;;;21.50;;
16288;SDS011;26089;43.538;5.250;2023-02-13T07:22:17;32.37;;;21.70;;
16288;SDS011;26089;43.538;5.250;2023-02-13T07:24:45;32.53;;;20.47;;
16288;SDS011;26089;43.538;5.250;2023-02-13T07:27:12;32.87;;;20.80;;
16288;SDS011;26089;43.538;5.250;2023-02-13T07:29:39;41.77;;;22.10;;
16288;SDS011;26089;43.538;5.250;2023-02-13T07:32:07;36.17;;;22.80;;
16288;SDS011;26089;43.538;5.250;2023-02-13T07:34:34;33.70;;;23.20;;
16288;SDS011;26089;43.538;5.250;2023-02-13T07:37:01;34.83;;;22.63;;
16288;SDS011;26089;43.538;5.250;2023-02-13T07:39:28;32.10;;;21.10;;
16288;SDS011;26089;43.538;5.250;2023-02-13T07:41:55;31.23;;;22.03;;
16288;SDS011;26089;43.538;5.250;2023-02-13T07:44:22;31.43;;;20.83;;
16288;SDS011;26089;43.538;5.250;2023-02-13T07:46:49;33.93;;;22.77;;
16288;SDS011;26089;43.538;5.250;2023-02-13T07:49:18;33.13;;;22.70;;
16288;SDS011;26089;43.538;5.250;2023-02-13T07:51:45;32.90;;;20.93;;
16288;SDS011;26089;43.538;5.250;2023-02-13T07:54:12;29.67;;;19.10;;
16288;SDS011;26089;43.538;5.250;2023-02-13T07:56:39;30.27;;;20.53;;
16288;SDS011;26089;43.538;5.250;2023-02-13T07:59:06;26.97;;;18.50;;
16288;SDS011;26089;43.538;5.250;2023-02-13T08:01:33;25.83;;;19.13;;
16288;SDS011;26089;43.538;5.250;2023-02-13T08:04:00;26.67;;;17.30;;
16288;SDS011;26089;43.538;5.250;2023-02-13T08:06:28;24.80;;;17.83;;
16288;SDS011;26089;43.538;5.250;2023-02-13T08:08:55;27.33;;;18.23;;
16288;SDS011;26089;43.538;5.250;2023-02-13T08:11:40;28.27;;;18.73;;
16288;SDS011;26089;43.538;5.250;2023-02-13T08:14:19;31.47;;;20.00;;
16288;SDS011;26089;43.538;5.250;2023-02-13T08:16:47;29.23;;;21.10;;
16288;SDS011;26089;43.538;5.250;2023-02-13T08:19:14;31.70;;;21.83;;
16288;SDS011;26089;43.538;5.250;2023-02-13T08:21:43;29.83;;;21.00;;
16288;SDS011;26089;43.538;5.250;2023-02-13T08:24:10;28.37;;;20.83;;
16288;SDS011;26089;43.538;5.250;2023-02-13T08:26:38;24.67;;;19.03;;
16288;SDS011;26089;43.538;5.250;2023-02-13T08:29:05;24.43;;;20.20;;
16288;SDS011;26089;43.538;5.250;2023-02-13T08:31:32;24.90;;;18.00;;
16288;SDS011;26089;43.538;5.250;2023-02-13T08:34:00;22.40;;;17.40;;
16288;SDS011;26089;43.538;5.250;2023-02-13T08:36:27;18.83;;;15.17;;
16288;SDS011;26089;43.538;5.250;2023-02-13T08:38:56;22.87;;;15.53;;
16288;SDS011;26089;43.538;5.250;2023-02-13T08:41:23;20.37;;;14.83;;
16288;SDS011;26089;43.538;5.250;2023-02-13T08:43:50;21.03;;;15.30;;
16288;SDS011;26089;43.538;5.250;2023-02-13T08:46:18;22.67;;;15.60;;
16288;SDS011;26089;43.538;5.250;2023-02-13T08:48:45;21.27;;;14.90;;
16288;SDS011;26089;43.538;5.250;2023-02-13T08:51:13;21.37;;;16.00;;
16288;SDS011;26089;43.538;5.250;2023-02-13T08:53:40;21.77;;;15.40;;
16288;SDS011;26089;43.538;5.250;2023-02-13T08:56:09;16.87;;;12.17;;
16288;SDS011;26089;43.538;5.250;2023-02-13T08:58:36;18.00;;;12.80;;
16288;SDS011;26089;43.538;5.250;2023-02-13T09:01:03;15.40;;;12.53;;
16288;SDS011;26089;43.538;5.250;2023-02-13T09:03:31;20.97;;;13.57;;
16288;SDS011;26089;43.538;5.250;2023-02-13T09:05:58;17.33;;;13.40;;
16288;SDS011;26089;43.538;5.250;2023-02-13T09:08:27;18.07;;;12.63;;
16288;SDS011;26089;43.538;5.250;2023-02-13T09:10:55;24.23;;;15.27;;
16288;SDS011;26089;43.538;5.250;2023-02-13T09:13:25;16.53;;;12.77;;
16288;SDS011;26089;43.538;5.250;2023-02-13T09:15:52;169.43;;;54.93;;
16288;SDS011;26089;43.538;5.250;2023-02-13T09:18:19;25.13;;;15.33;;
16288;SDS011;26089;43.538;5.250;2023-02-13T09:20:46;16.60;;;12.47;;
16288;SDS011;26089;43.538;5.250;2023-02-13T09:23:13;14.27;;;11.53;;
16288;SDS011;26089;43.538;5.250;2023-02-13T09:25:40;16.60;;;11.80;;
16288;SDS011;26089;43.538;5.250;2023-02-13T09:28:07;13.80;;;10.60;;
16288;SDS011;26089;43.538;5.250;2023-02-13T09:30:35;16.43;;;11.40;;
16288;SDS011;26089;43.538;5.250;2023-02-13T09:33:02;16.80;;;11.97;;
16288;SDS011;26089;43.538;5.250;2023-02-13T09:35:35;16.13;;;10.63;;
16288;SDS011;26089;43.538;5.250;2023-02-13T09:38:05;14.87;;;11.40;;
16288;SDS011;26089;43.538;5.250;2023-02-13T09:40:34;17.67;;;12.00;;
16288;SDS011;26089;43.538;5.250;2023-02-13T09:43:04;16.43;;;11.87;;
16288;SDS011;26089;43.538;5.250;2023-02-13T09:45:38;13.80;;;11.43;;
16288;SDS011;26089;43.538;5.250;2023-02-13T09:48:07;15.80;;;11.13;;
16288;SDS011;26089;43.538;5.250;2023-02-13T09:50:39;13.07;;;10.57;;
16288;SDS011;26089;43.538;5.250;2023-02-13T09:53:08;14.77;;;10.77;;
16288;SDS011;26089;43.538;5.250;2023-02-13T09:55:45;12.90;;;10.13;;
16288;SDS011;26089;43.538;5.250;2023-02-13T09:58:18;16.53;;;10.90;;
16288;SDS011;26089;43.538;5.250;2023-02-13T10:00:52;15.93;;;10.27;;
16288;SDS011;26089;43.538;5.250;2023-02-13T10:03:27;14.80;;;10.13;;
16288;SDS011;26089;43.538;5.250;2023-02-13T10:05:58;14.17;;;10.00;;
16288;SDS011;26089;43.538;5.250;2023-02-13T10:08:48;14.53;;;10.33;;
16288;SDS011;26089;43.538;5.250;2023-02-13T10:11:40;14.27;;;10.63;;
16288;SDS011;26089;43.538;5.250;2023-02-13T10:14:27;11.73;;;9.77;;
16288;SDS011;26089;43.538;5.250;2023-02-13T10:17:05;18.10;;;11.03;;
16288;SDS011;26089;43.538;5.250;2023-02-13T10:19:38;16.60;;;9.97;;
16288;SDS011;26089;43.538;5.250;2023-02-13T10:22:11;13.13;;;10.13;;
16288;SDS011;26089;43.538;5.250;2023-02-13T10:24:43;11.57;;;9.47;;
16288;SDS011;26089;43.538;5.250;2023-02-13T10:27:20;13.20;;;8.67;;
16288;SDS011;26089;43.538;5.250;2023-02-13T10:29:50;12.10;;;8.73;;
16288;SDS011;26089;43.538;5.250;2023-02-13T10:32:36;13.03;;;9.90;;
16288;SDS011;26089;43.538;5.250;2023-02-13T10:35:20;15.33;;;8.80;;
16288;SDS011;26089;43.538;5.250;2023-02-13T10:37:53;15.77;;;9.70;;
16288;SDS011;26089;43.538;5.250;2023-02-13T10:40:23;14.30;;;10.10;;
16288;SDS011;26089;43.538;5.250;2023-02-13T10:42:58;13.03;;;9.83;;
16288;SDS011;26089;43.538;5.250;2023-02-13T10:45:40;15.30;;;10.23;;
16288;SDS011;26089;43.538;5.250;2023-02-13T10:48:26;12.43;;;10.37;;
16288;SDS011;26089;43.538;5.250;2023-02-13T10:51:03;13.17;;;10.20;;
16288;SDS011;26089;43.538;5.250;2023-02-13T10:53:41;12.70;;;9.50;;
16288;SDS011;26089;43.538;5.250;2023-02-13T10:56:25;13.50;;;10.37;;
16288;SDS011;26089;43.538;5.250;2023-02-13T10:59:07;14.53;;;10.10;;
16288;SDS011;26089;43.538;5.250;2023-02-13T11:01:53;16.83;;;11.20;;
16288;SDS011;26089;43.538;5.250;2023-02-13T11:04:24;13.23;;;10.97;;
16288;SDS011;26089;43.538;5.250;2023-02-13T11:06:54;17.93;;;12.17;;
16288;SDS011;26089;43.538;5.250;2023-02-13T11:09:22;15.27;;;11.50;;
16288;SDS011;26089;43.538;5.250;2023-02-13T11:11:50;14.27;;;11.20;;
16288;SDS011;26089;43.538;5.250;2023-02-13T11:14:18;15.30;;;10.50;;
16288;SDS011;26089;43.538;5.250;2023-02-13T11:16:48;15.60;;;11.40;;
16288;SDS011;26089;43.538;5.250;2023-02-13T11:19:19;15.90;;;10.90;;
16288;SDS011;26089;43.538;5.250;2023-02-13T11:21:56;13.70;;;10.73;;
16288;SDS011;26089;43.538;5.250;2023-02-13T11:24:26;14.73;;;11.60;;
16288;SDS011;26089;43.538;5.250;2023-02-13T11:26:57;13.43;;;11.37;;
16288;SDS011;26089;43.538;5.250;2023-02-13T11:29:27;15.93;;;10.97;;
16288;SDS011;26089;43.538;5.250;2023-02-13T11:32:01;19.17;;;11.80;;
16288;SDS011;26089;43.538;5.250;2023-02-13T11:34:36;14.20;;;11.40;;
16288;SDS011;26089;43.538;5.250;2023-02-13T11:37:14;17.30;;;12.40;;
16288;SDS011;26089;43.538;5.250;2023-02-13T11:39:46;16.27;;;13.30;;
16288;SDS011;26089;43.538;5.250;2023-02-13T11:42:14;15.07;;;12.17;;
16288;SDS011;26089;43.538;5.250;2023-02-13T11:44:47;16.80;;;12.53;;
16288;SDS011;26089;43.538;5.250;2023-02-13T11:47:16;18.17;;;11.60;;
16288;SDS011;26089;43.538;5.250;2023-02-13T11:50:03;17.10;;;12.77;;
16288;SDS011;26089;43.538;5.250;2023-02-13T11:52:34;16.87;;;13.77;;
16288;SDS011;26089;43.538;5.250;2023-02-13T11:55:03;19.47;;;14.63;;
16288;SDS011;26089;43.538;5.250;2023-02-13T11:57:54;17.07;;;13.93;;
16288;SDS011;26089;43.538;5.250;2023-02-13T12:00:27;19.97;;;15.10;;
16288;SDS011;26089;43.538;5.250;2023-02-13T12:03:01;21.93;;;15.70;;
16288;SDS011;26089;43.538;5.250;2023-02-13T12:05:58;22.23;;;14.67;;
16288;SDS011;26089;43.538;5.250;2023-02-13T12:08:29;20.97;;;15.33;;
16288;SDS011;26089;43.538;5.250;2023-02-13T12:10:57;20.10;;;14.73;;
16288;SDS011;26089;43.538;5.250;2023-02-13T12:13:26;19.63;;;14.60;;
16288;SDS011;26089;43.538;5.250;2023-02-13T12:15:57;18.13;;;14.37;;
16288;SDS011;26089;43.538;5.250;2023-02-13T12:18:28;20.17;;;15.40;;
16288;SDS011;26089;43.538;5.250;2023-02-13T12:20:59;19.07;;;14.40;;
16288;SDS011;26089;43.538;5.250;2023-02-13T12:23:38;21.10;;;15.23;;
16288;SDS011;26089;43.538;5.250;2023-02-13T12:26:13;17.53;;;15.03;;
16288;SDS011;26089;43.538;5.250;2023-02-13T12:28:59;18.97;;;15.77;;
16288;SDS011;26089;43.538;5.250;2023-02-13T12:31:51;21.20;;;14.87;;
16288;SDS011;26089;43.538;5.250;2023-02-13T12:37:36;19.87;;;15.70;;
16288;SDS011;26089;43.538;5.250;2023-02-13T12:40:21;18.63;;;14.70;;
16288;SDS011;26089;43.538;5.250;2023-02-13T12:43:07;21.50;;;16.60;;
16288;SDS011;26089;43.538;5.250;2023-02-13T12:45:48;19.97;;;15.10;;
16288;SDS011;26089;43.538;5.250;2023-02-13T12:48:25;20.97;;;15.97;;
16288;SDS011;26089;43.538;5.250;2023-02-13T12:51:02;23.33;;;16.37;;
16288;SDS011;26089;43.538;5.250;2023-02-13T12:53:55;17.20;;;15.20;;
16288;SDS011;26089;43.538;5.250;2023-02-13T13:00:07;21.00;;;14.77;;
16288;SDS011;26089;43.538;5.250;2023-02-13T13:05:55;17.70;;;13.53;;
16288;SDS011;26089;43.538;5.250;2023-02-13T13:08:37;19.47;;;14.47;;
16288;SDS011;26089;43.538;5.250;2023-02-13T13:11:20;15.90;;;13.70;;
16288;SDS011;26089;43.538;5.250;2023-02-13T13:13:56;17.93;;;13.67;;
16288;SDS011;26089;43.538;5.250;2023-02-13T13:16:33;17.67;;;14.33;;
16288;SDS011;26089;43.538;5.250;2023-02-13T13:19:10;17.37;;;15.07;;
16288;SDS011;26089;43.538;5.250;2023-02-13T13:21:46;16.80;;;13.23;;
16288;SDS011;26089;43.538;5.250;2023-02-13T13:27:07;18.00;;;14.03;;
16288;SDS011;26089;43.538;5.250;2023-02-13T13:29:41;17.77;;;14.47;;
16288;SDS011;26089;43.538;5.250;2023-02-13T13:32:18;19.20;;;13.73;;
16288;SDS011;26089;43.538;5.250;2023-02-13T13:34:47;20.33;;;13.97;;
16288;SDS011;26089;43.538;5.250;2023-02-13T13:37:17;15.30;;;13.60;;
16288;SDS011;26089;43.538;5.250;2023-02-13T13:39:52;17.00;;;13.17;;
16288;SDS011;26089;43.538;5.250;2023-02-13T13:42:24;18.07;;;13.50;;
16288;SDS011;26089;43.538;5.250;2023-02-13T13:47:56;17.97;;;12.97;;
16288;SDS011;26089;43.538;5.250;2023-02-13T13:50:41;18.10;;;12.80;;
16288;SDS011;26089;43.538;5.250;2023-02-13T13:53:10;15.27;;;12.30;;
16288;SDS011;26089;43.538;5.250;2023-02-13T13:58:36;15.93;;;13.43;;
16288;SDS011;26089;43.538;5.250;2023-02-13T14:01:18;17.30;;;13.80;;
16288;SDS011;26089;43.538;5.250;2023-02-13T14:03:57;17.00;;;12.20;;
16288;SDS011;26089;43.538;5.250;2023-02-13T14:06:27;15.20;;;13.00;;
16288;SDS011;26089;43.538;5.250;2023-02-13T14:15:03;15.80;;;13.57;;
16288;SDS011;26089;43.538;5.250;2023-02-13T14:17:50;16.83;;;13.33;;
16288;SDS011;26089;43.538;5.250;2023-02-13T14:20:25;14.67;;;13.03;;
16288;SDS011;26089;43.538;5.250;2023-02-13T14:23:06;16.40;;;12.50;;
16288;SDS011;26089;43.538;5.250;2023-02-13T14:25:40;17.90;;;13.20;;
16288;SDS011;26089;43.538;5.250;2023-02-13T14:28:14;15.80;;;13.27;;
16288;SDS011;26089;43.538;5.250;2023-02-13T14:30:49;15.17;;;13.00;;
16288;SDS011;26089;43.538;5.250;2023-02-13T14:33:22;16.70;;;13.30;;
16288;SDS011;26089;43.538;5.250;2023-02-13T14:36:00;16.90;;;13.00;;
16288;SDS011;26089;43.538;5.250;2023-02-13T14:38:31;19.73;;;13.90;;
16288;SDS011;26089;43.538;5.250;2023-02-13T14:41:00;17.43;;;12.60;;
16288;SDS011;26089;43.538;5.250;2023-02-13T14:43:29;16.53;;;12.93;;
16288;SDS011;26089;43.538;5.250;2023-02-13T14:48:57;16.63;;;13.67;;
16288;SDS011;26089;43.538;5.250;2023-02-13T14:51:32;14.93;;;12.23;;
16288;SDS011;26089;43.538;5.250;2023-02-13T14:54:03;16.80;;;12.63;;
16288;SDS011;26089;43.538;5.250;2023-02-13T14:56:35;19.83;;;14.43;;
16288;SDS011;26089;43.538;5.250;2023-02-13T14:59:07;16.40;;;13.70;;
16288;SDS011;26089;43.538;5.250;2023-02-13T15:01:40;20.93;;;13.97;;
16288;SDS011;26089;43.538;5.250;2023-02-13T15:04:13;17.57;;;13.40;;
16288;SDS011;26089;43.538;5.250;2023-02-13T15:06:45;14.50;;;12.80;;
16288;SDS011;26089;43.538;5.250;2023-02-13T15:09:27;18.00;;;13.87;;
16288;SDS011;26089;43.538;5.250;2023-02-13T15:11:58;19.07;;;13.47;;
16288;SDS011;26089;43.538;5.250;2023-02-13T15:14:29;18.63;;;12.93;;
16288;SDS011;26089;43.538;5.250;2023-02-13T15:17:00;15.33;;;13.47;;